sensor_id;sensor_type;location;lat;lon;timestamp;temperature;humidity
23556;DHT22;11956;53.184;8.578;2023-04-23T00:02:20;12.80;99.90
23556;DHT22;11956;53.184;8.578;2023-04-23T00:05:26;12.80;99.90
23556;DHT22;11956;53.184;8.578;2023-04-23T00:08:28;12.90;99.90
23556;DHT22;11956;53.184;8.578;2023-04-23T00:11:30;12.80;99.90
23556;DHT22;11956;53.184;8.578;2023-04-23T00:14:31;12.80;99.90
23556;DHT22;11956;53.184;8.578;2023-04-23T00:17:32;12.80;99.90
23556;DHT22;11956;53.184;8.578;2023-04-23T00:20:32;12.60;99.90
23556;DHT22;11956;53.184;8.578;2023-04-23T00:23:34;12.60;99.90
23556;DHT22;11956;53.184;8.578;2023-04-23T00:26:35;12.60;99.90
23556;DHT22;11956;53.184;8.578;2023-04-23T00:29:37;12.70;99.90
23556;DHT22;11956;53.184;8.578;2023-04-23T00:32:41;12.70;99.90
23556;DHT22;11956;53.184;8.578;2023-04-23T00:35:42;12.70;99.90
23556;DHT22;11956;53.184;8.578;2023-04-23T00:38:43;12.70;99.90
23556;DHT22;11956;53.184;8.578;2023-04-23T00:41:44;12.70;99.90
23556;DHT22;11956;53.184;8.578;2023-04-23T00:44:45;12.70;99.90
23556;DHT22;11956;53.184;8.578;2023-04-23T00:47:47;12.70;99.90
23556;DHT22;11956;53.184;8.578;2023-04-23T00:51:02;12.70;99.90
23556;DHT22;11956;53.184;8.578;2023-04-23T00:54:04;12.70;99.90
23556;DHT22;11956;53.184;8.578;2023-04-23T00:57:05;12.60;99.90
23556;DHT22;11956;53.184;8.578;2023-04-23T01:00:08;12.60;99.90
23556;DHT22;11956;53.184;8.578;2023-04-23T01:03:14;12.50;99.90
23556;DHT22;11956;53.184;8.578;2023-04-23T01:06:18;12.40;99.90
23556;DHT22;11956;53.184;8.578;2023-04-23T01:09:19;12.30;99.90
23556;DHT22;11956;53.184;8.578;2023-04-23T01:12:20;12.20;99.90
23556;DHT22;11956;53.184;8.578;2023-04-23T01:15:22;12.20;99.90
23556;DHT22;11956;53.184;8.578;2023-04-23T01:18:23;12.00;99.90
23556;DHT22;11956;53.184;8.578;2023-04-23T01:21:25;12.10;99.90
23556;DHT22;11956;53.184;8.578;2023-04-23T01:24:30;12.10;99.90
23556;DHT22;11956;53.184;8.578;2023-04-23T01:27:31;12.10;99.90
23556;DHT22;11956;53.184;8.578;2023-04-23T01:30:37;12.10;99.90
23556;DHT22;11956;53.184;8.578;2023-04-23T01:33:38;12.10;99.90
23556;DHT22;11956;53.184;8.578;2023-04-23T01:36:42;12.10;99.90
23556;DHT22;11956;53.184;8.578;2023-04-23T01:39:43;12.00;99.90
23556;DHT22;11956;53.184;8.578;2023-04-23T01:42:44;12.10;99.90
23556;DHT22;11956;53.184;8.578;2023-04-23T01:45:45;12.00;99.90
23556;DHT22;11956;53.184;8.578;2023-04-23T01:48:46;11.90;99.90
23556;DHT22;11956;53.184;8.578;2023-04-23T01:51:47;11.90;99.90
23556;DHT22;11956;53.184;8.578;2023-04-23T01:54:48;11.90;99.90
23556;DHT22;11956;53.184;8.578;2023-04-23T01:57:50;11.90;99.90
23556;DHT22;11956;53.184;8.578;2023-04-23T02:00:51;11.90;99.90
23556;DHT22;11956;53.184;8.578;2023-04-23T02:03:52;11.80;99.90
23556;DHT22;11956;53.184;8.578;2023-04-23T02:06:54;11.70;99.90
23556;DHT22;11956;53.184;8.578;2023-04-23T02:09:55;11.60;99.90
23556;DHT22;11956;53.184;8.578;2023-04-23T02:12:57;11.50;99.90
23556;DHT22;11956;53.184;8.578;2023-04-23T02:15:58;11.40;99.90
23556;DHT22;11956;53.184;8.578;2023-04-23T02:18:59;11.30;99.90
23556;DHT22;11956;53.184;8.578;2023-04-23T02:22:01;11.20;99.90
23556;DHT22;11956;53.184;8.578;2023-04-23T02:25:02;11.10;99.90
23556;DHT22;11956;53.184;8.578;2023-04-23T02:28:05;11.10;99.90
23556;DHT22;11956;53.184;8.578;2023-04-23T02:31:06;11.20;99.90
23556;DHT22;11956;53.184;8.578;2023-04-23T02:34:08;11.20;99.90
23556;DHT22;11956;53.184;8.578;2023-04-23T02:37:09;11.20;99.90
23556;DHT22;11956;53.184;8.578;2023-04-23T02:40:11;11.30;99.90
23556;DHT22;11956;53.184;8.578;2023-04-23T02:43:12;11.30;99.90
23556;DHT22;11956;53.184;8.578;2023-04-23T02:46:13;11.20;99.90
23556;DHT22;11956;53.184;8.578;2023-04-23T02:49:14;11.30;99.90
23556;DHT22;11956;53.184;8.578;2023-04-23T02:52:15;11.30;99.90
23556;DHT22;11956;53.184;8.578;2023-04-23T02:55:16;11.30;99.90
23556;DHT22;11956;53.184;8.578;2023-04-23T02:58:17;11.20;99.90
23556;DHT22;11956;53.184;8.578;2023-04-23T03:01:22;11.20;99.90
23556;DHT22;11956;53.184;8.578;2023-04-23T03:04:23;11.10;99.90
23556;DHT22;11956;53.184;8.578;2023-04-23T03:07:24;11.10;99.90
23556;DHT22;11956;53.184;8.578;2023-04-23T03:10:25;11.00;99.90
23556;DHT22;11956;53.184;8.578;2023-04-23T03:13:26;11.00;99.90
23556;DHT22;11956;53.184;8.578;2023-04-23T03:16:28;10.90;99.90
23556;DHT22;11956;53.184;8.578;2023-04-23T03:19:30;10.90;99.90
23556;DHT22;11956;53.184;8.578;2023-04-23T03:22:32;10.90;99.90
23556;DHT22;11956;53.184;8.578;2023-04-23T03:25:33;10.90;99.90
23556;DHT22;11956;53.184;8.578;2023-04-23T03:28:34;10.90;99.90
23556;DHT22;11956;53.184;8.578;2023-04-23T03:31:35;10.90;99.90
23556;DHT22;11956;53.184;8.578;2023-04-23T03:34:37;11.00;99.90
23556;DHT22;11956;53.184;8.578;2023-04-23T03:37:38;11.00;99.90
23556;DHT22;11956;53.184;8.578;2023-04-23T03:40:40;11.00;99.90
23556;DHT22;11956;53.184;8.578;2023-04-23T03:43:42;11.00;99.90
23556;DHT22;11956;53.184;8.578;2023-04-23T03:46:55;10.90;99.90
23556;DHT22;11956;53.184;8.578;2023-04-23T03:49:56;10.90;99.90
23556;DHT22;11956;53.184;8.578;2023-04-23T03:52:57;10.90;99.90
23556;DHT22;11956;53.184;8.578;2023-04-23T03:56:18;10.80;99.90
23556;DHT22;11956;53.184;8.578;2023-04-23T03:59:28;10.60;99.90
23556;DHT22;11956;53.184;8.578;2023-04-23T04:02:32;10.50;99.90
23556;DHT22;11956;53.184;8.578;2023-04-23T04:05:34;10.50;99.90
23556;DHT22;11956;53.184;8.578;2023-04-23T04:08:35;10.40;99.90
23556;DHT22;11956;53.184;8.578;2023-04-23T04:11:36;10.40;99.90
23556;DHT22;11956;53.184;8.578;2023-04-23T04:14:37;10.40;99.90
23556;DHT22;11956;53.184;8.578;2023-04-23T04:17:38;10.40;99.90
23556;DHT22;11956;53.184;8.578;2023-04-23T04:20:39;10.40;99.90
23556;DHT22;11956;53.184;8.578;2023-04-23T04:23:43;10.40;99.90
23556;DHT22;11956;53.184;8.578;2023-04-23T04:26:45;10.40;99.90
23556;DHT22;11956;53.184;8.578;2023-04-23T04:29:47;10.40;99.90
23556;DHT22;11956;53.184;8.578;2023-04-23T04:32:48;10.40;99.90
23556;DHT22;11956;53.184;8.578;2023-04-23T04:35:50;10.40;99.90
23556;DHT22;11956;53.184;8.578;2023-04-23T04:38:51;10.50;99.90
23556;DHT22;11956;53.184;8.578;2023-04-23T04:41:55;10.50;99.90
23556;DHT22;11956;53.184;8.578;2023-04-23T04:44:57;10.60;99.90
23556;DHT22;11956;53.184;8.578;2023-04-23T04:47:58;10.70;99.90
23556;DHT22;11956;53.184;8.578;2023-04-23T04:50:59;10.70;99.90
23556;DHT22;11956;53.184;8.578;2023-04-23T04:54:00;10.80;99.90
23556;DHT22;11956;53.184;8.578;2023-04-23T04:57:01;10.90;99.90
23556;DHT22;11956;53.184;8.578;2023-04-23T05:00:24;10.90;99.90
23556;DHT22;11956;53.184;8.578;2023-04-23T05:03:27;10.90;99.90
23556;DHT22;11956;53.184;8.578;2023-04-23T05:06:28;10.90;99.90
23556;DHT22;11956;53.184;8.578;2023-04-23T05:09:29;10.90;99.90
23556;DHT22;11956;53.184;8.578;2023-04-23T05:12:30;10.90;99.90
23556;DHT22;11956;53.184;8.578;2023-04-23T05:15:31;10.90;99.90
23556;DHT22;11956;53.184;8.578;2023-04-23T05:18:31;11.00;99.90
23556;DHT22;11956;53.184;8.578;2023-04-23T05:21:33;11.00;99.90
23556;DHT22;11956;53.184;8.578;2023-04-23T05:24:34;11.00;99.90
23556;DHT22;11956;53.184;8.578;2023-04-23T05:27:34;11.00;99.90
23556;DHT22;11956;53.184;8.578;2023-04-23T05:30:35;11.10;99.90
23556;DHT22;11956;53.184;8.578;2023-04-23T05:33:37;11.10;99.90
23556;DHT22;11956;53.184;8.578;2023-04-23T05:36:38;11.20;99.90
23556;DHT22;11956;53.184;8.578;2023-04-23T05:39:39;11.20;99.90
23556;DHT22;11956;53.184;8.578;2023-04-23T05:42:40;11.30;99.90
23556;DHT22;11956;53.184;8.578;2023-04-23T05:45:41;11.30;99.90
23556;DHT22;11956;53.184;8.578;2023-04-23T05:48:42;11.30;99.90
23556;DHT22;11956;53.184;8.578;2023-04-23T05:51:43;11.30;99.90
23556;DHT22;11956;53.184;8.578;2023-04-23T05:54:44;11.30;99.90
23556;DHT22;11956;53.184;8.578;2023-04-23T05:57:45;11.30;99.90
23556;DHT22;11956;53.184;8.578;2023-04-23T06:00:46;11.30;99.90
23556;DHT22;11956;53.184;8.578;2023-04-23T06:03:47;11.40;99.90
23556;DHT22;11956;53.184;8.578;2023-04-23T06:06:48;11.40;99.90
23556;DHT22;11956;53.184;8.578;2023-04-23T06:09:49;11.40;99.90
23556;DHT22;11956;53.184;8.578;2023-04-23T06:12:50;11.50;99.90
23556;DHT22;11956;53.184;8.578;2023-04-23T06:15:53;11.50;99.90
23556;DHT22;11956;53.184;8.578;2023-04-23T06:18:54;12.10;99.90
23556;DHT22;11956;53.184;8.578;2023-04-23T06:21:57;12.70;99.90
23556;DHT22;11956;53.184;8.578;2023-04-23T06:24:59;13.10;99.90
23556;DHT22;11956;53.184;8.578;2023-04-23T06:28:00;14.00;99.90
23556;DHT22;11956;53.184;8.578;2023-04-23T06:31:04;14.80;99.90
23556;DHT22;11956;53.184;8.578;2023-04-23T06:34:05;15.80;99.90
23556;DHT22;11956;53.184;8.578;2023-04-23T06:37:06;16.00;99.90
23556;DHT22;11956;53.184;8.578;2023-04-23T06:40:08;16.10;99.90
23556;DHT22;11956;53.184;8.578;2023-04-23T06:43:09;16.90;99.90
23556;DHT22;11956;53.184;8.578;2023-04-23T06:46:34;18.00;99.90
23556;DHT22;11956;53.184;8.578;2023-04-23T06:49:34;18.70;99.90
23556;DHT22;11956;53.184;8.578;2023-04-23T06:52:35;18.80;99.90
23556;DHT22;11956;53.184;8.578;2023-04-23T06:55:36;19.50;99.90
23556;DHT22;11956;53.184;8.578;2023-04-23T06:58:37;19.50;99.90
23556;DHT22;11956;53.184;8.578;2023-04-23T07:01:46;18.40;99.90
23556;DHT22;11956;53.184;8.578;2023-04-23T07:04:47;18.40;99.90
23556;DHT22;11956;53.184;8.578;2023-04-23T07:07:48;18.60;99.90
23556;DHT22;11956;53.184;8.578;2023-04-23T07:10:49;18.90;99.90
23556;DHT22;11956;53.184;8.578;2023-04-23T07:13:51;19.40;99.90
23556;DHT22;11956;53.184;8.578;2023-04-23T07:16:52;19.40;99.90
23556;DHT22;11956;53.184;8.578;2023-04-23T07:19:54;19.30;99.90
23556;DHT22;11956;53.184;8.578;2023-04-23T07:22:54;20.40;99.90
23556;DHT22;11956;53.184;8.578;2023-04-23T07:25:55;21.50;99.90
23556;DHT22;11956;53.184;8.578;2023-04-23T07:28:56;20.40;99.90
23556;DHT22;11956;53.184;8.578;2023-04-23T07:31:57;19.90;99.90
23556;DHT22;11956;53.184;8.578;2023-04-23T07:34:58;21.30;99.90
23556;DHT22;11956;53.184;8.578;2023-04-23T07:37:59;21.50;97.90
23556;DHT22;11956;53.184;8.578;2023-04-23T07:41:00;21.40;98.60
23556;DHT22;11956;53.184;8.578;2023-04-23T07:44:01;22.30;97.20
23556;DHT22;11956;53.184;8.578;2023-04-23T07:47:02;23.10;94.70
23556;DHT22;11956;53.184;8.578;2023-04-23T07:50:03;23.30;93.60
23556;DHT22;11956;53.184;8.578;2023-04-23T07:53:04;23.90;92.60
23556;DHT22;11956;53.184;8.578;2023-04-23T07:56:05;24.10;92.30
23556;DHT22;11956;53.184;8.578;2023-04-23T07:59:06;23.90;91.70
23556;DHT22;11956;53.184;8.578;2023-04-23T08:02:09;22.70;93.50
23556;DHT22;11956;53.184;8.578;2023-04-23T08:05:10;24.60;90.60
23556;DHT22;11956;53.184;8.578;2023-04-23T08:08:12;26.00;88.20
23556;DHT22;11956;53.184;8.578;2023-04-23T08:11:13;25.10;87.70
23556;DHT22;11956;53.184;8.578;2023-04-23T08:14:14;24.40;88.20
23556;DHT22;11956;53.184;8.578;2023-04-23T08:17:15;24.10;88.60
23556;DHT22;11956;53.184;8.578;2023-04-23T08:20:17;23.50;90.20
23556;DHT22;11956;53.184;8.578;2023-04-23T08:23:18;22.80;91.00
23556;DHT22;11956;53.184;8.578;2023-04-23T08:26:19;22.30;92.10
23556;DHT22;11956;53.184;8.578;2023-04-23T08:29:20;22.90;90.90
23556;DHT22;11956;53.184;8.578;2023-04-23T08:32:21;23.80;90.00
23556;DHT22;11956;53.184;8.578;2023-04-23T08:35:22;24.00;90.00
23556;DHT22;11956;53.184;8.578;2023-04-23T08:38:24;23.50;90.40
23556;DHT22;11956;53.184;8.578;2023-04-23T08:41:26;23.00;90.50
23556;DHT22;11956;53.184;8.578;2023-04-23T08:44:35;23.30;89.50
23556;DHT22;11956;53.184;8.578;2023-04-23T08:47:41;23.50;90.50
23556;DHT22;11956;53.184;8.578;2023-04-23T08:50:45;24.20;86.20
23556;DHT22;11956;53.184;8.578;2023-04-23T08:53:50;23.70;88.20
23556;DHT22;11956;53.184;8.578;2023-04-23T08:56:57;24.20;85.70
23556;DHT22;11956;53.184;8.578;2023-04-23T08:59:59;23.20;85.90
23556;DHT22;11956;53.184;8.578;2023-04-23T09:03:01;22.50;89.40
23556;DHT22;11956;53.184;8.578;2023-04-23T09:06:02;23.40;89.20
23556;DHT22;11956;53.184;8.578;2023-04-23T09:09:05;23.20;86.60
23556;DHT22;11956;53.184;8.578;2023-04-23T09:12:07;23.60;88.10
23556;DHT22;11956;53.184;8.578;2023-04-23T09:15:09;23.60;84.00
23556;DHT22;11956;53.184;8.578;2023-04-23T09:18:10;24.70;84.40
23556;DHT22;11956;53.184;8.578;2023-04-23T09:21:11;23.60;83.70
23556;DHT22;11956;53.184;8.578;2023-04-23T09:24:13;24.00;85.10
23556;DHT22;11956;53.184;8.578;2023-04-23T09:27:18;23.70;84.40
23556;DHT22;11956;53.184;8.578;2023-04-23T09:30:25;23.50;84.10
23556;DHT22;11956;53.184;8.578;2023-04-23T09:33:27;22.70;88.80
23556;DHT22;11956;53.184;8.578;2023-04-23T09:36:30;22.90;90.20
23556;DHT22;11956;53.184;8.578;2023-04-23T09:39:32;22.50;91.00
23556;DHT22;11956;53.184;8.578;2023-04-23T09:42:35;23.20;89.00
23556;DHT22;11956;53.184;8.578;2023-04-23T09:45:47;24.80;86.20
23556;DHT22;11956;53.184;8.578;2023-04-23T09:48:50;24.20;85.20
23556;DHT22;11956;53.184;8.578;2023-04-23T09:51:52;22.50;89.00
23556;DHT22;11956;53.184;8.578;2023-04-23T09:54:55;22.20;90.50
23556;DHT22;11956;53.184;8.578;2023-04-23T09:57:57;24.20;88.50
23556;DHT22;11956;53.184;8.578;2023-04-23T10:01:08;24.20;84.80
23556;DHT22;11956;53.184;8.578;2023-04-23T10:04:11;22.50;90.70
23556;DHT22;11956;53.184;8.578;2023-04-23T10:07:15;23.20;88.10
23556;DHT22;11956;53.184;8.578;2023-04-23T10:10:18;24.90;84.00
23556;DHT22;11956;53.184;8.578;2023-04-23T10:13:19;24.40;82.70
23556;DHT22;11956;53.184;8.578;2023-04-23T10:16:21;23.80;85.60
23556;DHT22;11956;53.184;8.578;2023-04-23T10:19:24;23.40;84.80
23556;DHT22;11956;53.184;8.578;2023-04-23T10:22:28;24.10;84.60
23556;DHT22;11956;53.184;8.578;2023-04-23T10:25:30;24.00;83.80
23556;DHT22;11956;53.184;8.578;2023-04-23T10:28:32;24.40;83.90
23556;DHT22;11956;53.184;8.578;2023-04-23T10:31:33;24.40;83.80
23556;DHT22;11956;53.184;8.578;2023-04-23T10:34:35;23.40;86.70
23556;DHT22;11956;53.184;8.578;2023-04-23T10:37:37;22.00;90.70
23556;DHT22;11956;53.184;8.578;2023-04-23T10:40:39;22.60;90.10
23556;DHT22;11956;53.184;8.578;2023-04-23T10:43:40;23.70;88.20
23556;DHT22;11956;53.184;8.578;2023-04-23T10:46:53;23.80;85.50
23556;DHT22;11956;53.184;8.578;2023-04-23T10:49:56;23.30;88.60
23556;DHT22;11956;53.184;8.578;2023-04-23T10:52:57;22.30;90.40
23556;DHT22;11956;53.184;8.578;2023-04-23T10:56:05;21.40;92.20
23556;DHT22;11956;53.184;8.578;2023-04-23T10:59:30;20.70;93.90
23556;DHT22;11956;53.184;8.578;2023-04-23T11:02:42;20.20;94.60
23556;DHT22;11956;53.184;8.578;2023-04-23T11:05:46;20.00;95.40
23556;DHT22;11956;53.184;8.578;2023-04-23T11:08:51;19.80;95.80
23556;DHT22;11956;53.184;8.578;2023-04-23T11:11:54;20.10;95.90
23556;DHT22;11956;53.184;8.578;2023-04-23T11:14:56;20.20;95.90
23556;DHT22;11956;53.184;8.578;2023-04-23T11:17:59;20.30;96.00
23556;DHT22;11956;53.184;8.578;2023-04-23T11:21:03;20.50;95.60
23556;DHT22;11956;53.184;8.578;2023-04-23T11:24:06;20.90;95.30
23556;DHT22;11956;53.184;8.578;2023-04-23T11:27:09;21.20;94.20
23556;DHT22;11956;53.184;8.578;2023-04-23T11:30:27;21.30;94.00
23556;DHT22;11956;53.184;8.578;2023-04-23T11:33:29;21.20;94.90
23556;DHT22;11956;53.184;8.578;2023-04-23T11:36:30;21.00;94.70
23556;DHT22;11956;53.184;8.578;2023-04-23T11:39:32;20.60;95.10
23556;DHT22;11956;53.184;8.578;2023-04-23T11:42:40;20.10;95.70
23556;DHT22;11956;53.184;8.578;2023-04-23T11:45:43;20.30;95.40
23556;DHT22;11956;53.184;8.578;2023-04-23T11:48:44;20.20;96.60
23556;DHT22;11956;53.184;8.578;2023-04-23T11:51:45;20.60;96.50
23556;DHT22;11956;53.184;8.578;2023-04-23T11:54:47;20.40;96.20
23556;DHT22;11956;53.184;8.578;2023-04-23T11:57:49;20.70;95.90
23556;DHT22;11956;53.184;8.578;2023-04-23T12:00:56;21.10;95.30
23556;DHT22;11956;53.184;8.578;2023-04-23T12:03:58;21.40;95.70
23556;DHT22;11956;53.184;8.578;2023-04-23T12:06:59;21.50;94.80
23556;DHT22;11956;53.184;8.578;2023-04-23T12:10:00;21.60;95.30
23556;DHT22;11956;53.184;8.578;2023-04-23T12:13:02;21.60;94.70
23556;DHT22;11956;53.184;8.578;2023-04-23T12:16:04;21.50;94.60
23556;DHT22;11956;53.184;8.578;2023-04-23T12:19:29;21.20;94.70
23556;DHT22;11956;53.184;8.578;2023-04-23T12:22:31;21.20;94.80
23556;DHT22;11956;53.184;8.578;2023-04-23T12:25:32;21.30;94.60
23556;DHT22;11956;53.184;8.578;2023-04-23T12:28:33;21.60;95.10
23556;DHT22;11956;53.184;8.578;2023-04-23T12:31:36;21.90;94.80
23556;DHT22;11956;53.184;8.578;2023-04-23T12:34:53;21.90;94.30
23556;DHT22;11956;53.184;8.578;2023-04-23T12:37:56;21.60;96.20
23556;DHT22;11956;53.184;8.578;2023-04-23T12:40:58;21.80;95.70
23556;DHT22;11956;53.184;8.578;2023-04-23T12:44:01;22.20;95.00
23556;DHT22;11956;53.184;8.578;2023-04-23T12:47:04;22.40;94.90
23556;DHT22;11956;53.184;8.578;2023-04-23T12:50:11;22.30;94.10
23556;DHT22;11956;53.184;8.578;2023-04-23T12:53:12;22.20;93.10
23556;DHT22;11956;53.184;8.578;2023-04-23T12:56:13;21.70;94.30
23556;DHT22;11956;53.184;8.578;2023-04-23T12:59:14;21.80;94.60
23556;DHT22;11956;53.184;8.578;2023-04-23T13:02:15;22.10;93.60
23556;DHT22;11956;53.184;8.578;2023-04-23T13:05:16;22.10;93.10
23556;DHT22;11956;53.184;8.578;2023-04-23T13:08:17;22.00;92.40
23556;DHT22;11956;53.184;8.578;2023-04-23T13:11:18;22.20;91.50
23556;DHT22;11956;53.184;8.578;2023-04-23T13:14:19;22.20;91.90
23556;DHT22;11956;53.184;8.578;2023-04-23T13:17:20;22.40;92.90
23556;DHT22;11956;53.184;8.578;2023-04-23T13:20:22;22.30;90.50
23556;DHT22;11956;53.184;8.578;2023-04-23T13:23:24;22.20;91.20
23556;DHT22;11956;53.184;8.578;2023-04-23T13:26:27;22.10;91.90
23556;DHT22;11956;53.184;8.578;2023-04-23T13:29:32;22.10;91.70
23556;DHT22;11956;53.184;8.578;2023-04-23T13:32:33;22.20;91.60
23556;DHT22;11956;53.184;8.578;2023-04-23T13:35:34;22.00;91.60
23556;DHT22;11956;53.184;8.578;2023-04-23T13:38:37;22.00;91.70
23556;DHT22;11956;53.184;8.578;2023-04-23T13:41:38;21.80;91.80
23556;DHT22;11956;53.184;8.578;2023-04-23T13:44:41;21.60;91.80
23556;DHT22;11956;53.184;8.578;2023-04-23T13:47:42;21.70;91.30
23556;DHT22;11956;53.184;8.578;2023-04-23T13:50:43;21.80;90.90
23556;DHT22;11956;53.184;8.578;2023-04-23T13:53:44;21.90;90.30
23556;DHT22;11956;53.184;8.578;2023-04-23T13:56:45;22.10;90.30
23556;DHT22;11956;53.184;8.578;2023-04-23T13:59:46;22.20;90.10
23556;DHT22;11956;53.184;8.578;2023-04-23T14:02:47;22.30;90.20
23556;DHT22;11956;53.184;8.578;2023-04-23T14:05:48;22.30;90.40
23556;DHT22;11956;53.184;8.578;2023-04-23T14:08:49;22.30;90.30
23556;DHT22;11956;53.184;8.578;2023-04-23T14:11:50;22.40;90.10
23556;DHT22;11956;53.184;8.578;2023-04-23T14:14:51;22.30;89.20
23556;DHT22;11956;53.184;8.578;2023-04-23T14:17:52;22.20;90.00
23556;DHT22;11956;53.184;8.578;2023-04-23T14:20:53;22.30;90.40
23556;DHT22;11956;53.184;8.578;2023-04-23T14:24:00;22.30;90.10
23556;DHT22;11956;53.184;8.578;2023-04-23T14:27:02;22.40;90.40
23556;DHT22;11956;53.184;8.578;2023-04-23T14:30:04;22.50;90.10
23556;DHT22;11956;53.184;8.578;2023-04-23T14:33:05;22.30;87.20
23556;DHT22;11956;53.184;8.578;2023-04-23T14:36:06;21.90;86.70
23556;DHT22;11956;53.184;8.578;2023-04-23T14:39:07;21.60;89.30
23556;DHT22;11956;53.184;8.578;2023-04-23T14:42:08;21.50;90.20
23556;DHT22;11956;53.184;8.578;2023-04-23T14:45:09;21.30;88.60
23556;DHT22;11956;53.184;8.578;2023-04-23T14:48:10;21.40;89.30
23556;DHT22;11956;53.184;8.578;2023-04-23T14:51:11;21.60;90.60
23556;DHT22;11956;53.184;8.578;2023-04-23T14:54:12;21.60;90.00
23556;DHT22;11956;53.184;8.578;2023-04-23T14:57:13;21.50;89.30
23556;DHT22;11956;53.184;8.578;2023-04-23T15:00:16;21.50;88.60
23556;DHT22;11956;53.184;8.578;2023-04-23T15:03:17;21.60;87.30
23556;DHT22;11956;53.184;8.578;2023-04-23T15:06:18;21.60;88.00
23556;DHT22;11956;53.184;8.578;2023-04-23T15:09:19;21.60;89.60
23556;DHT22;11956;53.184;8.578;2023-04-23T15:12:36;21.60;89.40
23556;DHT22;11956;53.184;8.578;2023-04-23T15:15:48;21.50;88.80
23556;DHT22;11956;53.184;8.578;2023-04-23T15:18:50;21.50;88.30
23556;DHT22;11956;53.184;8.578;2023-04-23T15:21:51;21.40;89.00
23556;DHT22;11956;53.184;8.578;2023-04-23T15:24:52;21.10;88.00
23556;DHT22;11956;53.184;8.578;2023-04-23T15:27:52;20.80;89.50
23556;DHT22;11956;53.184;8.578;2023-04-23T15:30:57;20.70;90.80
23556;DHT22;11956;53.184;8.578;2023-04-23T15:33:58;20.30;91.20
23556;DHT22;11956;53.184;8.578;2023-04-23T15:36:59;20.10;91.90
23556;DHT22;11956;53.184;8.578;2023-04-23T15:40:00;19.40;95.40
23556;DHT22;11956;53.184;8.578;2023-04-23T15:43:01;18.80;97.70
23556;DHT22;11956;53.184;8.578;2023-04-23T15:46:02;18.20;99.60
23556;DHT22;11956;53.184;8.578;2023-04-23T15:49:03;17.80;99.90
23556;DHT22;11956;53.184;8.578;2023-04-23T15:52:05;17.70;99.90
23556;DHT22;11956;53.184;8.578;2023-04-23T15:55:06;17.60;99.90
23556;DHT22;11956;53.184;8.578;2023-04-23T15:58:08;17.60;99.90
23556;DHT22;11956;53.184;8.578;2023-04-23T16:01:08;17.70;99.90
23556;DHT22;11956;53.184;8.578;2023-04-23T16:04:10;17.50;99.90
23556;DHT22;11956;53.184;8.578;2023-04-23T16:07:11;17.80;99.90
23556;DHT22;11956;53.184;8.578;2023-04-23T16:10:12;17.30;99.90
23556;DHT22;11956;53.184;8.578;2023-04-23T16:13:13;17.40;99.90
23556;DHT22;11956;53.184;8.578;2023-04-23T16:16:14;17.40;99.90
23556;DHT22;11956;53.184;8.578;2023-04-23T16:19:15;17.50;99.90
23556;DHT22;11956;53.184;8.578;2023-04-23T16:22:16;17.70;99.90
23556;DHT22;11956;53.184;8.578;2023-04-23T16:25:17;17.40;99.90
23556;DHT22;11956;53.184;8.578;2023-04-23T16:28:18;17.30;99.90
23556;DHT22;11956;53.184;8.578;2023-04-23T16:31:19;17.10;99.90
23556;DHT22;11956;53.184;8.578;2023-04-23T16:34:20;17.00;99.90
23556;DHT22;11956;53.184;8.578;2023-04-23T16:37:21;16.50;99.90
23556;DHT22;11956;53.184;8.578;2023-04-23T16:40:22;16.50;99.90
23556;DHT22;11956;53.184;8.578;2023-04-23T16:43:22;16.40;99.90
23556;DHT22;11956;53.184;8.578;2023-04-23T16:46:25;16.50;99.90
23556;DHT22;11956;53.184;8.578;2023-04-23T16:49:29;16.40;99.90
23556;DHT22;11956;53.184;8.578;2023-04-23T16:52:30;16.60;99.90
23556;DHT22;11956;53.184;8.578;2023-04-23T16:55:31;16.50;99.90
23556;DHT22;11956;53.184;8.578;2023-04-23T16:58:32;16.50;99.90
23556;DHT22;11956;53.184;8.578;2023-04-23T17:01:34;16.30;99.90
23556;DHT22;11956;53.184;8.578;2023-04-23T17:04:35;16.30;99.90
23556;DHT22;11956;53.184;8.578;2023-04-23T17:07:36;16.00;99.90
23556;DHT22;11956;53.184;8.578;2023-04-23T17:10:40;16.00;99.90
23556;DHT22;11956;53.184;8.578;2023-04-23T17:13:41;16.10;99.90
23556;DHT22;11956;53.184;8.578;2023-04-23T17:16:43;16.00;99.90
23556;DHT22;11956;53.184;8.578;2023-04-23T17:19:44;16.00;99.90
23556;DHT22;11956;53.184;8.578;2023-04-23T17:22:45;15.60;99.90
23556;DHT22;11956;53.184;8.578;2023-04-23T17:25:46;15.10;99.90
23556;DHT22;11956;53.184;8.578;2023-04-23T17:28:46;14.60;99.90
23556;DHT22;11956;53.184;8.578;2023-04-23T17:31:47;14.30;99.90
23556;DHT22;11956;53.184;8.578;2023-04-23T17:34:48;13.50;99.90
23556;DHT22;11956;53.184;8.578;2023-04-23T17:37:49;13.00;99.90
23556;DHT22;11956;53.184;8.578;2023-04-23T17:40:51;12.80;99.90
23556;DHT22;11956;53.184;8.578;2023-04-23T17:43:52;12.60;99.90
23556;DHT22;11956;53.184;8.578;2023-04-23T17:46:53;12.60;99.90
23556;DHT22;11956;53.184;8.578;2023-04-23T17:49:54;12.70;99.90
23556;DHT22;11956;53.184;8.578;2023-04-23T17:52:55;12.80;99.90
23556;DHT22;11956;53.184;8.578;2023-04-23T17:55:56;12.80;99.90
23556;DHT22;11956;53.184;8.578;2023-04-23T17:59:02;12.90;99.90
23556;DHT22;11956;53.184;8.578;2023-04-23T18:02:03;13.00;99.90
23556;DHT22;11956;53.184;8.578;2023-04-23T18:05:08;13.00;99.90
23556;DHT22;11956;53.184;8.578;2023-04-23T18:08:11;13.10;99.90
23556;DHT22;11956;53.184;8.578;2023-04-23T18:11:12;13.10;99.90
23556;DHT22;11956;53.184;8.578;2023-04-23T18:14:13;13.00;99.90
23556;DHT22;11956;53.184;8.578;2023-04-23T18:17:14;13.00;99.90
23556;DHT22;11956;53.184;8.578;2023-04-23T18:20:17;13.00;99.90
23556;DHT22;11956;53.184;8.578;2023-04-23T18:23:18;13.00;99.90
23556;DHT22;11956;53.184;8.578;2023-04-23T18:26:22;13.10;99.90
23556;DHT22;11956;53.184;8.578;2023-04-23T18:29:23;13.10;99.90
23556;DHT22;11956;53.184;8.578;2023-04-23T18:32:25;13.10;99.90
23556;DHT22;11956;53.184;8.578;2023-04-23T18:35:28;13.00;99.90
23556;DHT22;11956;53.184;8.578;2023-04-23T18:38:34;12.70;99.90
23556;DHT22;11956;53.184;8.578;2023-04-23T18:41:37;12.20;99.90
23556;DHT22;11956;53.184;8.578;2023-04-23T18:44:38;12.10;99.90
23556;DHT22;11956;53.184;8.578;2023-04-23T18:47:49;11.90;99.90
23556;DHT22;11956;53.184;8.578;2023-04-23T18:50:54;11.70;99.90
23556;DHT22;11956;53.184;8.578;2023-04-23T18:53:57;11.80;99.90
23556;DHT22;11956;53.184;8.578;2023-04-23T18:56:59;11.80;99.90
23556;DHT22;11956;53.184;8.578;2023-04-23T19:00:01;11.70;99.90
23556;DHT22;11956;53.184;8.578;2023-04-23T19:03:02;11.80;99.90
23556;DHT22;11956;53.184;8.578;2023-04-23T19:06:03;11.70;99.90
23556;DHT22;11956;53.184;8.578;2023-04-23T19:09:07;11.80;99.90
23556;DHT22;11956;53.184;8.578;2023-04-23T19:12:08;11.90;99.90